Lakeville, New York
Current Conditions -  °F | °C
As of 10:54 PM on Saturday 24 Jan 2015 (Local Time) from KDSV Reporting Station
Overcast Overcast  
Wind Chill: 24°   Ceiling: 7500
Heat Index: 33°   Visibility: 10mi
Dew Point: 25°   Wind: 13mph
Humidity: 72%   Direction: 270°W
Pressure: 29.5"   Gusts: 24mph
Location:  42.83°N, 77.7°W
Report Text: KDSV 250354Z AUTO 27011G21KT 10SM OVC075 01/M04 A2950 RMK AO2 SNE46 SLP005 P0000 T00061039
Loading
Personal Weather Stations






























Interactive Weather Map New forecast layout! Learn more

10-Day Weather Forecast

Advertisements
Track Severe Weather on mobile